sensor_id;sensor_type;location;lat;lon;timestamp;P1;durP1;ratioP1;P2;durP2;ratioP2
26656;SDS011;14279;50.010;8.260;2023-03-21T00:00:12;6.37;;;3.20;;
26656;SDS011;14279;50.010;8.260;2023-03-21T00:02:37;7.20;;;3.33;;
26656;SDS011;14279;50.010;8.260;2023-03-21T00:05:02;9.13;;;3.67;;
26656;SDS011;14279;50.010;8.260;2023-03-21T00:07:28;10.30;;;3.40;;
26656;SDS011;14279;50.010;8.260;2023-03-21T00:09:53;9.43;;;3.30;;
26656;SDS011;14279;50.010;8.260;2023-03-21T00:12:18;8.60;;;3.40;;
26656;SDS011;14279;50.010;8.260;2023-03-21T00:14:45;8.23;;;3.40;;
26656;SDS011;14279;50.010;8.260;2023-03-21T00:17:10;7.47;;;3.20;;
26656;SDS011;14279;50.010;8.260;2023-03-21T00:19:35;6.60;;;3.07;;
26656;SDS011;14279;50.010;8.260;2023-03-21T00:22:02;7.10;;;3.30;;
26656;SDS011;14279;50.010;8.260;2023-03-21T00:24:28;8.07;;;3.50;;
26656;SDS011;14279;50.010;8.260;2023-03-21T00:26:53;11.00;;;3.00;;
26656;SDS011;14279;50.010;8.260;2023-03-21T00:29:19;10.17;;;3.70;;
26656;SDS011;14279;50.010;8.260;2023-03-21T00:31:44;6.30;;;3.17;;
26656;SDS011;14279;50.010;8.260;2023-03-21T00:34:09;9.03;;;4.00;;
26656;SDS011;14279;50.010;8.260;2023-03-21T00:36:35;12.70;;;4.13;;
26656;SDS011;14279;50.010;8.260;2023-03-21T00:39:01;4.63;;;2.87;;
26656;SDS011;14279;50.010;8.260;2023-03-21T00:41:26;9.27;;;3.07;;
26656;SDS011;14279;50.010;8.260;2023-03-21T00:43:51;8.00;;;2.97;;
26656;SDS011;14279;50.010;8.260;2023-03-21T00:46:19;11.13;;;3.23;;
26656;SDS011;14279;50.010;8.260;2023-03-21T00:48:44;7.87;;;3.50;;
26656;SDS011;14279;50.010;8.260;2023-03-21T00:51:14;5.43;;;3.00;;
26656;SDS011;14279;50.010;8.260;2023-03-21T00:53:54;5.57;;;2.50;;
26656;SDS011;14279;50.010;8.260;2023-03-21T00:56:21;8.10;;;3.77;;
26656;SDS011;14279;50.010;8.260;2023-03-21T00:58:47;6.57;;;3.43;;
26656;SDS011;14279;50.010;8.260;2023-03-21T01:01:12;8.73;;;3.30;;
26656;SDS011;14279;50.010;8.260;2023-03-21T01:03:37;12.07;;;3.87;;
26656;SDS011;14279;50.010;8.260;2023-03-21T01:06:08;6.00;;;3.00;;
26656;SDS011;14279;50.010;8.260;2023-03-21T01:08:38;5.90;;;2.83;;
26656;SDS011;14279;50.010;8.260;2023-03-21T01:11:07;10.53;;;3.40;;
26656;SDS011;14279;50.010;8.260;2023-03-21T01:13:35;10.63;;;3.87;;
26656;SDS011;14279;50.010;8.260;2023-03-21T01:16:00;6.13;;;3.40;;
26656;SDS011;14279;50.010;8.260;2023-03-21T01:18:28;11.77;;;3.67;;
26656;SDS011;14279;50.010;8.260;2023-03-21T01:20:55;7.07;;;3.40;;
26656;SDS011;14279;50.010;8.260;2023-03-21T01:23:22;10.00;;;3.83;;
26656;SDS011;14279;50.010;8.260;2023-03-21T01:25:48;13.00;;;4.07;;
26656;SDS011;14279;50.010;8.260;2023-03-21T01:28:14;6.67;;;3.70;;
26656;SDS011;14279;50.010;8.260;2023-03-21T01:30:47;8.07;;;3.50;;
26656;SDS011;14279;50.010;8.260;2023-03-21T01:33:14;8.13;;;3.87;;
26656;SDS011;14279;50.010;8.260;2023-03-21T01:35:40;6.03;;;3.70;;
26656;SDS011;14279;50.010;8.260;2023-03-21T01:38:05;13.50;;;4.30;;
26656;SDS011;14279;50.010;8.260;2023-03-21T01:40:30;7.10;;;3.57;;
26656;SDS011;14279;50.010;8.260;2023-03-21T01:42:56;6.87;;;3.80;;
26656;SDS011;14279;50.010;8.260;2023-03-21T01:48:45;7.37;;;4.67;;
26656;SDS011;14279;50.010;8.260;2023-03-21T01:51:14;9.47;;;5.07;;
26656;SDS011;14279;50.010;8.260;2023-03-21T01:53:39;7.07;;;4.40;;
26656;SDS011;14279;50.010;8.260;2023-03-21T01:56:08;10.13;;;4.90;;
26656;SDS011;14279;50.010;8.260;2023-03-21T01:58:42;9.73;;;4.53;;
26656;SDS011;14279;50.010;8.260;2023-03-21T02:01:08;7.90;;;4.40;;
26656;SDS011;14279;50.010;8.260;2023-03-21T02:03:34;7.50;;;4.43;;
26656;SDS011;14279;50.010;8.260;2023-03-21T02:06:07;7.33;;;3.77;;
26656;SDS011;14279;50.010;8.260;2023-03-21T02:08:37;7.40;;;4.10;;
26656;SDS011;14279;50.010;8.260;2023-03-21T02:11:04;5.77;;;4.40;;
26656;SDS011;14279;50.010;8.260;2023-03-21T02:13:29;9.23;;;4.80;;
26656;SDS011;14279;50.010;8.260;2023-03-21T02:15:58;7.70;;;4.80;;
26656;SDS011;14279;50.010;8.260;2023-03-21T02:27:20;10.20;;;6.03;;
26656;SDS011;14279;50.010;8.260;2023-03-21T02:32:56;11.60;;;6.20;;
26656;SDS011;14279;50.010;8.260;2023-03-21T02:35:32;20.87;;;6.67;;
26656;SDS011;14279;50.010;8.260;2023-03-21T02:38:03;15.17;;;6.10;;
26656;SDS011;14279;50.010;8.260;2023-03-21T02:40:58;11.03;;;5.30;;
26656;SDS011;14279;50.010;8.260;2023-03-21T02:43:30;13.00;;;5.70;;
26656;SDS011;14279;50.010;8.260;2023-03-21T02:46:18;9.60;;;5.30;;
26656;SDS011;14279;50.010;8.260;2023-03-21T02:48:58;7.80;;;5.10;;
26656;SDS011;14279;50.010;8.260;2023-03-21T02:51:29;14.97;;;5.73;;
26656;SDS011;14279;50.010;8.260;2023-03-21T02:53:57;7.30;;;4.70;;
26656;SDS011;14279;50.010;8.260;2023-03-21T02:56:45;10.63;;;5.20;;
26656;SDS011;14279;50.010;8.260;2023-03-21T02:59:13;12.73;;;5.10;;
26656;SDS011;14279;50.010;8.260;2023-03-21T03:01:40;12.20;;;6.00;;
26656;SDS011;14279;50.010;8.260;2023-03-21T03:04:22;13.43;;;6.77;;
26656;SDS011;14279;50.010;8.260;2023-03-21T03:18:18;11.73;;;5.80;;
26656;SDS011;14279;50.010;8.260;2023-03-21T03:20:53;13.00;;;6.63;;
26656;SDS011;14279;50.010;8.260;2023-03-21T03:26:38;14.30;;;7.10;;
26656;SDS011;14279;50.010;8.260;2023-03-21T03:29:10;9.10;;;6.20;;
26656;SDS011;14279;50.010;8.260;2023-03-21T03:31:41;10.97;;;6.30;;
26656;SDS011;14279;50.010;8.260;2023-03-21T03:34:14;13.90;;;6.73;;
26656;SDS011;14279;50.010;8.260;2023-03-21T03:36:43;14.33;;;6.73;;
26656;SDS011;14279;50.010;8.260;2023-03-21T03:39:12;14.30;;;5.93;;
26656;SDS011;14279;50.010;8.260;2023-03-21T03:42:01;13.43;;;6.30;;
26656;SDS011;14279;50.010;8.260;2023-03-21T03:44:27;12.83;;;5.90;;
26656;SDS011;14279;50.010;8.260;2023-03-21T03:47:10;13.23;;;6.77;;
26656;SDS011;14279;50.010;8.260;2023-03-21T03:49:54;10.37;;;6.10;;
26656;SDS011;14279;50.010;8.260;2023-03-21T03:52:38;11.93;;;6.03;;
26656;SDS011;14279;50.010;8.260;2023-03-21T03:55:13;10.60;;;5.70;;
26656;SDS011;14279;50.010;8.260;2023-03-21T03:57:41;14.30;;;5.77;;
26656;SDS011;14279;50.010;8.260;2023-03-21T04:00:08;11.80;;;5.57;;
26656;SDS011;14279;50.010;8.260;2023-03-21T04:02:39;19.17;;;6.37;;
26656;SDS011;14279;50.010;8.260;2023-03-21T04:05:05;20.43;;;5.53;;
26656;SDS011;14279;50.010;8.260;2023-03-21T04:07:30;14.57;;;6.63;;
26656;SDS011;14279;50.010;8.260;2023-03-21T04:09:55;15.27;;;6.10;;
26656;SDS011;14279;50.010;8.260;2023-03-21T04:12:21;13.20;;;6.40;;
26656;SDS011;14279;50.010;8.260;2023-03-21T04:14:47;20.53;;;5.90;;
26656;SDS011;14279;50.010;8.260;2023-03-21T04:17:13;16.97;;;5.50;;
26656;SDS011;14279;50.010;8.260;2023-03-21T04:19:39;18.70;;;6.50;;
26656;SDS011;14279;50.010;8.260;2023-03-21T04:22:05;10.80;;;5.93;;
26656;SDS011;14279;50.010;8.260;2023-03-21T04:24:30;17.43;;;6.10;;
26656;SDS011;14279;50.010;8.260;2023-03-21T04:26:57;12.37;;;6.10;;
26656;SDS011;14279;50.010;8.260;2023-03-21T04:29:23;12.93;;;6.17;;
26656;SDS011;14279;50.010;8.260;2023-03-21T04:31:49;17.30;;;6.13;;
26656;SDS011;14279;50.010;8.260;2023-03-21T04:34:14;12.70;;;5.80;;
26656;SDS011;14279;50.010;8.260;2023-03-21T04:36:39;11.90;;;5.97;;
26656;SDS011;14279;50.010;8.260;2023-03-21T04:39:11;12.00;;;5.97;;
26656;SDS011;14279;50.010;8.260;2023-03-21T04:41:37;12.80;;;6.77;;
26656;SDS011;14279;50.010;8.260;2023-03-21T04:44:04;11.50;;;6.40;;
26656;SDS011;14279;50.010;8.260;2023-03-21T04:46:30;16.90;;;6.03;;
26656;SDS011;14279;50.010;8.260;2023-03-21T04:48:55;9.80;;;5.67;;
26656;SDS011;14279;50.010;8.260;2023-03-21T04:51:20;14.67;;;6.80;;
26656;SDS011;14279;50.010;8.260;2023-03-21T04:53:46;11.20;;;6.20;;
26656;SDS011;14279;50.010;8.260;2023-03-21T04:56:13;10.90;;;5.70;;
26656;SDS011;14279;50.010;8.260;2023-03-21T04:58:39;15.27;;;5.33;;
26656;SDS011;14279;50.010;8.260;2023-03-21T05:01:06;10.20;;;5.80;;
26656;SDS011;14279;50.010;8.260;2023-03-21T05:03:31;10.80;;;5.57;;
26656;SDS011;14279;50.010;8.260;2023-03-21T05:06:02;10.20;;;5.27;;
26656;SDS011;14279;50.010;8.260;2023-03-21T05:08:27;9.40;;;5.70;;
26656;SDS011;14279;50.010;8.260;2023-03-21T05:10:52;10.83;;;6.03;;
26656;SDS011;14279;50.010;8.260;2023-03-21T05:13:18;11.93;;;6.40;;
26656;SDS011;14279;50.010;8.260;2023-03-21T05:15:43;9.77;;;5.50;;
26656;SDS011;14279;50.010;8.260;2023-03-21T05:18:08;14.23;;;4.80;;
26656;SDS011;14279;50.010;8.260;2023-03-21T05:20:39;15.40;;;5.33;;
26656;SDS011;14279;50.010;8.260;2023-03-21T05:23:07;13.90;;;5.43;;
26656;SDS011;14279;50.010;8.260;2023-03-21T05:25:34;16.70;;;6.90;;
26656;SDS011;14279;50.010;8.260;2023-03-21T05:28:02;11.40;;;6.47;;
26656;SDS011;14279;50.010;8.260;2023-03-21T05:30:28;15.97;;;6.70;;
26656;SDS011;14279;50.010;8.260;2023-03-21T05:32:54;11.33;;;6.57;;
26656;SDS011;14279;50.010;8.260;2023-03-21T05:35:19;14.20;;;6.97;;
26656;SDS011;14279;50.010;8.260;2023-03-21T05:37:45;20.23;;;7.10;;
26656;SDS011;14279;50.010;8.260;2023-03-21T05:40:10;15.17;;;7.23;;
26656;SDS011;14279;50.010;8.260;2023-03-21T05:42:36;15.83;;;6.70;;
26656;SDS011;14279;50.010;8.260;2023-03-21T05:45:02;18.03;;;6.87;;
26656;SDS011;14279;50.010;8.260;2023-03-21T05:47:27;12.10;;;6.93;;
26656;SDS011;14279;50.010;8.260;2023-03-21T05:49:52;12.57;;;6.97;;
26656;SDS011;14279;50.010;8.260;2023-03-21T05:52:18;11.60;;;6.77;;
26656;SDS011;14279;50.010;8.260;2023-03-21T05:54:43;8.00;;;6.00;;
26656;SDS011;14279;50.010;8.260;2023-03-21T05:57:09;37.50;;;6.50;;
26656;SDS011;14279;50.010;8.260;2023-03-21T05:59:34;10.37;;;6.20;;
26656;SDS011;14279;50.010;8.260;2023-03-21T06:02:00;14.10;;;6.93;;
26656;SDS011;14279;50.010;8.260;2023-03-21T06:04:25;14.10;;;6.00;;
26656;SDS011;14279;50.010;8.260;2023-03-21T06:06:51;11.57;;;7.00;;
26656;SDS011;14279;50.010;8.260;2023-03-21T06:09:17;16.70;;;6.73;;
26656;SDS011;14279;50.010;8.260;2023-03-21T06:11:45;12.07;;;7.30;;
26656;SDS011;14279;50.010;8.260;2023-03-21T06:14:12;10.87;;;6.53;;
26656;SDS011;14279;50.010;8.260;2023-03-21T06:16:38;12.80;;;7.03;;
26656;SDS011;14279;50.010;8.260;2023-03-21T06:19:03;12.47;;;6.13;;
26656;SDS011;14279;50.010;8.260;2023-03-21T06:21:28;15.83;;;6.87;;
26656;SDS011;14279;50.010;8.260;2023-03-21T06:23:53;16.43;;;6.87;;
26656;SDS011;14279;50.010;8.260;2023-03-21T06:26:19;15.93;;;7.03;;
26656;SDS011;14279;50.010;8.260;2023-03-21T06:28:47;10.17;;;6.63;;
26656;SDS011;14279;50.010;8.260;2023-03-21T06:31:13;15.63;;;7.23;;
26656;SDS011;14279;50.010;8.260;2023-03-21T06:33:38;15.87;;;6.70;;
26656;SDS011;14279;50.010;8.260;2023-03-21T06:36:03;11.87;;;7.27;;
26656;SDS011;14279;50.010;8.260;2023-03-21T06:38:29;13.10;;;7.00;;
26656;SDS011;14279;50.010;8.260;2023-03-21T06:40:55;15.47;;;7.43;;
26656;SDS011;14279;50.010;8.260;2023-03-21T06:43:21;14.57;;;7.30;;
26656;SDS011;14279;50.010;8.260;2023-03-21T06:45:46;19.70;;;7.40;;
26656;SDS011;14279;50.010;8.260;2023-03-21T06:48:11;14.00;;;7.00;;
26656;SDS011;14279;50.010;8.260;2023-03-21T06:50:37;15.13;;;7.10;;
26656;SDS011;14279;50.010;8.260;2023-03-21T06:53:02;12.63;;;6.37;;
26656;SDS011;14279;50.010;8.260;2023-03-21T06:55:27;15.17;;;7.10;;
26656;SDS011;14279;50.010;8.260;2023-03-21T06:57:53;14.43;;;6.93;;
26656;SDS011;14279;50.010;8.260;2023-03-21T07:00:21;18.03;;;6.83;;
26656;SDS011;14279;50.010;8.260;2023-03-21T07:02:47;18.30;;;6.77;;
26656;SDS011;14279;50.010;8.260;2023-03-21T07:05:12;13.43;;;6.13;;
26656;SDS011;14279;50.010;8.260;2023-03-21T07:07:38;17.50;;;6.23;;
26656;SDS011;14279;50.010;8.260;2023-03-21T07:10:04;20.83;;;6.27;;
26656;SDS011;14279;50.010;8.260;2023-03-21T07:12:30;18.63;;;6.43;;
26656;SDS011;14279;50.010;8.260;2023-03-21T07:14:58;14.20;;;5.40;;
26656;SDS011;14279;50.010;8.260;2023-03-21T07:17:27;9.77;;;5.93;;
26656;SDS011;14279;50.010;8.260;2023-03-21T07:19:52;15.63;;;5.13;;
26656;SDS011;14279;50.010;8.260;2023-03-21T07:22:18;10.20;;;4.87;;
26656;SDS011;14279;50.010;8.260;2023-03-21T07:24:44;6.70;;;4.33;;
26656;SDS011;14279;50.010;8.260;2023-03-21T07:27:12;6.27;;;4.17;;
26656;SDS011;14279;50.010;8.260;2023-03-21T07:29:38;10.60;;;4.87;;
26656;SDS011;14279;50.010;8.260;2023-03-21T07:32:03;13.23;;;5.27;;
26656;SDS011;14279;50.010;8.260;2023-03-21T07:34:28;11.23;;;4.40;;
26656;SDS011;14279;50.010;8.260;2023-03-21T07:36:57;8.60;;;5.27;;
26656;SDS011;14279;50.010;8.260;2023-03-21T07:39:22;12.93;;;4.60;;
26656;SDS011;14279;50.010;8.260;2023-03-21T07:41:47;11.17;;;5.30;;
26656;SDS011;14279;50.010;8.260;2023-03-21T07:44:13;8.80;;;4.10;;
26656;SDS011;14279;50.010;8.260;2023-03-21T07:46:38;9.77;;;4.67;;
26656;SDS011;14279;50.010;8.260;2023-03-21T07:49:04;11.87;;;4.40;;
26656;SDS011;14279;50.010;8.260;2023-03-21T07:51:30;16.70;;;3.93;;
26656;SDS011;14279;50.010;8.260;2023-03-21T07:53:55;8.13;;;4.77;;
26656;SDS011;14279;50.010;8.260;2023-03-21T07:56:21;17.67;;;4.83;;
26656;SDS011;14279;50.010;8.260;2023-03-21T07:58:46;14.33;;;4.87;;
26656;SDS011;14279;50.010;8.260;2023-03-21T08:01:11;6.60;;;4.00;;
26656;SDS011;14279;50.010;8.260;2023-03-21T08:03:37;12.80;;;4.80;;
26656;SDS011;14279;50.010;8.260;2023-03-21T08:06:02;10.10;;;4.80;;
26656;SDS011;14279;50.010;8.260;2023-03-21T08:08:28;10.93;;;4.93;;
26656;SDS011;14279;50.010;8.260;2023-03-21T08:10:53;13.33;;;4.43;;
26656;SDS011;14279;50.010;8.260;2023-03-21T08:13:18;21.93;;;5.23;;
26656;SDS011;14279;50.010;8.260;2023-03-21T08:15:46;19.83;;;6.03;;
26656;SDS011;14279;50.010;8.260;2023-03-21T08:18:11;12.60;;;6.63;;
26656;SDS011;14279;50.010;8.260;2023-03-21T08:20:38;16.30;;;6.43;;
26656;SDS011;14279;50.010;8.260;2023-03-21T08:23:03;11.10;;;5.20;;
26656;SDS011;14279;50.010;8.260;2023-03-21T08:25:28;11.23;;;5.90;;
26656;SDS011;14279;50.010;8.260;2023-03-21T08:27:54;10.87;;;5.07;;
26656;SDS011;14279;50.010;8.260;2023-03-21T08:30:21;16.73;;;5.83;;
26656;SDS011;14279;50.010;8.260;2023-03-21T08:32:49;12.70;;;5.60;;
26656;SDS011;14279;50.010;8.260;2023-03-21T08:35:16;13.50;;;5.70;;
26656;SDS011;14279;50.010;8.260;2023-03-21T08:37:42;16.00;;;5.80;;
26656;SDS011;14279;50.010;8.260;2023-03-21T08:40:09;15.67;;;5.43;;
26656;SDS011;14279;50.010;8.260;2023-03-21T08:42:37;11.43;;;5.27;;
26656;SDS011;14279;50.010;8.260;2023-03-21T08:45:03;11.60;;;6.03;;
26656;SDS011;14279;50.010;8.260;2023-03-21T08:47:30;19.90;;;5.60;;
26656;SDS011;14279;50.010;8.260;2023-03-21T08:49:55;15.03;;;6.23;;
26656;SDS011;14279;50.010;8.260;2023-03-21T08:52:21;16.40;;;6.40;;
26656;SDS011;14279;50.010;8.260;2023-03-21T08:54:46;15.73;;;5.50;;
26656;SDS011;14279;50.010;8.260;2023-03-21T08:57:12;13.43;;;6.10;;
26656;SDS011;14279;50.010;8.260;2023-03-21T08:59:38;12.70;;;6.40;;
26656;SDS011;14279;50.010;8.260;2023-03-21T09:02:04;13.63;;;5.80;;
26656;SDS011;14279;50.010;8.260;2023-03-21T09:04:29;15.87;;;5.50;;
26656;SDS011;14279;50.010;8.260;2023-03-21T09:06:55;16.87;;;6.30;;
26656;SDS011;14279;50.010;8.260;2023-03-21T09:09:21;10.23;;;5.40;;
26656;SDS011;14279;50.010;8.260;2023-03-21T09:11:46;14.53;;;5.73;;
26656;SDS011;14279;50.010;8.260;2023-03-21T09:14:12;13.30;;;5.83;;
26656;SDS011;14279;50.010;8.260;2023-03-21T09:16:37;8.03;;;5.23;;
26656;SDS011;14279;50.010;8.260;2023-03-21T09:19:02;13.97;;;5.60;;
26656;SDS011;14279;50.010;8.260;2023-03-21T09:21:28;11.93;;;5.60;;
26656;SDS011;14279;50.010;8.260;2023-03-21T09:23:55;13.10;;;5.73;;
26656;SDS011;14279;50.010;8.260;2023-03-21T09:26:22;17.43;;;6.53;;
26656;SDS011;14279;50.010;8.260;2023-03-21T09:28:48;16.23;;;4.70;;
26656;SDS011;14279;50.010;8.260;2023-03-21T09:31:14;7.63;;;4.40;;
26656;SDS011;14279;50.010;8.260;2023-03-21T09:33:45;9.83;;;4.37;;
26656;SDS011;14279;50.010;8.260;2023-03-21T09:36:11;6.77;;;3.70;;
26656;SDS011;14279;50.010;8.260;2023-03-21T09:38:44;12.23;;;4.17;;
26656;SDS011;14279;50.010;8.260;2023-03-21T09:49:03;8.70;;;4.13;;
26656;SDS011;14279;50.010;8.260;2023-03-21T09:51:42;10.27;;;4.43;;
26656;SDS011;14279;50.010;8.260;2023-03-21T09:54:11;8.20;;;4.20;;
26656;SDS011;14279;50.010;8.260;2023-03-21T09:56:40;9.20;;;4.23;;
26656;SDS011;14279;50.010;8.260;2023-03-21T09:59:09;12.23;;;3.80;;
26656;SDS011;14279;50.010;8.260;2023-03-21T10:01:44;15.30;;;5.13;;
26656;SDS011;14279;50.010;8.260;2023-03-21T10:04:13;10.00;;;4.23;;
26656;SDS011;14279;50.010;8.260;2023-03-21T10:06:46;10.40;;;4.00;;
26656;SDS011;14279;50.010;8.260;2023-03-21T10:09:20;10.73;;;4.37;;
26656;SDS011;14279;50.010;8.260;2023-03-21T10:14:29;14.90;;;5.23;;
26656;SDS011;14279;50.010;8.260;2023-03-21T10:17:41;12.00;;;4.63;;
26656;SDS011;14279;50.010;8.260;2023-03-21T10:19:49;12.50;;;5.07;;
26656;SDS011;14279;50.010;8.260;2023-03-21T10:22:21;15.70;;;5.83;;
26656;SDS011;14279;50.010;8.260;2023-03-21T10:24:46;8.80;;;5.23;;
26656;SDS011;14279;50.010;8.260;2023-03-21T10:27:11;10.27;;;4.73;;
26656;SDS011;14279;50.010;8.260;2023-03-21T10:29:42;9.23;;;4.73;;
26656;SDS011;14279;50.010;8.260;2023-03-21T10:32:10;9.43;;;4.50;;
26656;SDS011;14279;50.010;8.260;2023-03-21T10:34:43;9.17;;;3.80;;
26656;SDS011;14279;50.010;8.260;2023-03-21T10:37:12;11.07;;;4.43;;
26656;SDS011;14279;50.010;8.260;2023-03-21T10:39:39;9.37;;;4.63;;
26656;SDS011;14279;50.010;8.260;2023-03-21T10:42:25;9.57;;;4.70;;
26656;SDS011;14279;50.010;8.260;2023-03-21T10:44:53;5.90;;;3.90;;
26656;SDS011;14279;50.010;8.260;2023-03-21T10:47:31;10.07;;;5.00;;
26656;SDS011;14279;50.010;8.260;2023-03-21T10:50:01;10.70;;;4.63;;
26656;SDS011;14279;50.010;8.260;2023-03-21T10:52:30;8.07;;;4.70;;
26656;SDS011;14279;50.010;8.260;2023-03-21T10:55:04;10.73;;;5.00;;
26656;SDS011;14279;50.010;8.260;2023-03-21T10:57:39;15.30;;;5.33;;
26656;SDS011;14279;50.010;8.260;2023-03-21T11:00:06;9.73;;;4.87;;
26656;SDS011;14279;50.010;8.260;2023-03-21T11:02:41;10.10;;;4.80;;
26656;SDS011;14279;50.010;8.260;2023-03-21T11:05:07;10.27;;;5.37;;
26656;SDS011;14279;50.010;8.260;2023-03-21T11:07:47;7.60;;;4.90;;
26656;SDS011;14279;50.010;8.260;2023-03-21T11:10:28;10.10;;;4.80;;
26656;SDS011;14279;50.010;8.260;2023-03-21T11:12:56;10.33;;;4.90;;
26656;SDS011;14279;50.010;8.260;2023-03-21T11:18:18;10.80;;;6.00;;
26656;SDS011;14279;50.010;8.260;2023-03-21T11:20:54;10.93;;;5.40;;
26656;SDS011;14279;50.010;8.260;2023-03-21T11:23:26;12.67;;;5.47;;
26656;SDS011;14279;50.010;8.260;2023-03-21T11:25:54;11.10;;;5.13;;
26656;SDS011;14279;50.010;8.260;2023-03-21T11:28:45;7.63;;;5.30;;
26656;SDS011;14279;50.010;8.260;2023-03-21T11:31:11;20.83;;;5.80;;
26656;SDS011;14279;50.010;8.260;2023-03-21T11:33:49;15.67;;;5.93;;
26656;SDS011;14279;50.010;8.260;2023-03-21T11:36:52;9.80;;;5.37;;
26656;SDS011;14279;50.010;8.260;2023-03-21T11:39:30;12.00;;;5.40;;
26656;SDS011;14279;50.010;8.260;2023-03-21T11:42:01;7.90;;;5.47;;
26656;SDS011;14279;50.010;8.260;2023-03-21T11:44:31;10.80;;;5.93;;
26656;SDS011;14279;50.010;8.260;2023-03-21T11:47:09;12.80;;;5.90;;
26656;SDS011;14279;50.010;8.260;2023-03-21T11:49:55;13.77;;;6.03;;
26656;SDS011;14279;50.010;8.260;2023-03-21T11:57:57;17.13;;;6.00;;
26656;SDS011;14279;50.010;8.260;2023-03-21T12:00:31;17.67;;;6.07;;
26656;SDS011;14279;50.010;8.260;2023-03-21T12:05:42;14.50;;;6.00;;
26656;SDS011;14279;50.010;8.260;2023-03-21T12:11:22;14.17;;;5.20;;
26656;SDS011;14279;50.010;8.260;2023-03-21T12:14:18;11.37;;;5.63;;
26656;SDS011;14279;50.010;8.260;2023-03-21T12:22:51;7.33;;;5.17;;
26656;SDS011;14279;50.010;8.260;2023-03-21T12:25:30;9.60;;;5.63;;
26656;SDS011;14279;50.010;8.260;2023-03-21T12:46:07;12.53;;;6.90;;
26656;SDS011;14279;50.010;8.260;2023-03-21T12:51:13;12.17;;;6.40;;
26656;SDS011;14279;50.010;8.260;2023-03-21T12:56:27;12.37;;;7.00;;
26656;SDS011;14279;50.010;8.260;2023-03-21T12:58:57;13.77;;;7.33;;
26656;SDS011;14279;50.010;8.260;2023-03-21T13:01:28;12.70;;;7.10;;
26656;SDS011;14279;50.010;8.260;2023-03-21T13:07:01;19.07;;;7.10;;
26656;SDS011;14279;50.010;8.260;2023-03-21T13:09:33;15.03;;;6.33;;
26656;SDS011;14279;50.010;8.260;2023-03-21T13:14:48;13.17;;;7.13;;
26656;SDS011;14279;50.010;8.260;2023-03-21T13:17:29;9.63;;;6.63;;
26656;SDS011;14279;50.010;8.260;2023-03-21T13:20:03;21.57;;;7.73;;
26656;SDS011;14279;50.010;8.260;2023-03-21T13:22:40;16.20;;;8.03;;
26656;SDS011;14279;50.010;8.260;2023-03-21T13:25:14;13.00;;;7.40;;
26656;SDS011;14279;50.010;8.260;2023-03-21T13:27:41;11.67;;;7.50;;
26656;SDS011;14279;50.010;8.260;2023-03-21T13:32:42;17.40;;;8.60;;
26656;SDS011;14279;50.010;8.260;2023-03-21T13:35:14;16.20;;;8.10;;
26656;SDS011;14279;50.010;8.260;2023-03-21T13:37:49;16.80;;;9.50;;
26656;SDS011;14279;50.010;8.260;2023-03-21T13:43:03;18.20;;;8.57;;
26656;SDS011;14279;50.010;8.260;2023-03-21T13:45:32;16.33;;;7.93;;
26656;SDS011;14279;50.010;8.260;2023-03-21T13:48:26;13.97;;;7.93;;
26656;SDS011;14279;50.010;8.260;2023-03-21T13:51:00;10.70;;;8.03;;
26656;SDS011;14279;50.010;8.260;2023-03-21T13:58:36;14.03;;;8.80;;
26656;SDS011;14279;50.010;8.260;2023-03-21T14:04:25;20.13;;;10.10;;
26656;SDS011;14279;50.010;8.260;2023-03-21T14:06:55;14.50;;;9.90;;
26656;SDS011;14279;50.010;8.260;2023-03-21T14:09:30;10.33;;;7.97;;
26656;SDS011;14279;50.010;8.260;2023-03-21T14:12:00;17.37;;;8.93;;
26656;SDS011;14279;50.010;8.260;2023-03-21T14:14:37;12.77;;;8.33;;
26656;SDS011;14279;50.010;8.260;2023-03-21T14:17:12;12.87;;;8.47;;
26656;SDS011;14279;50.010;8.260;2023-03-21T14:20:23;14.37;;;8.90;;
26656;SDS011;14279;50.010;8.260;2023-03-21T14:22:45;16.10;;;8.17;;
26656;SDS011;14279;50.010;8.260;2023-03-21T14:25:11;16.90;;;8.17;;
26656;SDS011;14279;50.010;8.260;2023-03-21T14:27:39;13.60;;;8.17;;
26656;SDS011;14279;50.010;8.260;2023-03-21T14:30:10;9.33;;;7.47;;
26656;SDS011;14279;50.010;8.260;2023-03-21T14:32:45;13.40;;;9.10;;
26656;SDS011;14279;50.010;8.260;2023-03-21T14:35:11;12.20;;;8.47;;
26656;SDS011;14279;50.010;8.260;2023-03-21T14:37:38;16.20;;;8.10;;
26656;SDS011;14279;50.010;8.260;2023-03-21T14:40:07;19.50;;;8.40;;
26656;SDS011;14279;50.010;8.260;2023-03-21T14:42:48;14.27;;;8.43;;
26656;SDS011;14279;50.010;8.260;2023-03-21T14:45:19;16.07;;;8.87;;
26656;SDS011;14279;50.010;8.260;2023-03-21T14:47:56;8.27;;;6.80;;
26656;SDS011;14279;50.010;8.260;2023-03-21T14:50:47;11.70;;;7.53;;
26656;SDS011;14279;50.010;8.260;2023-03-21T14:53:15;10.47;;;7.57;;
26656;SDS011;14279;50.010;8.260;2023-03-21T14:55:45;14.47;;;7.63;;
26656;SDS011;14279;50.010;8.260;2023-03-21T14:58:22;16.63;;;8.40;;
26656;SDS011;14279;50.010;8.260;2023-03-21T15:00:50;11.50;;;7.40;;
26656;SDS011;14279;50.010;8.260;2023-03-21T15:03:18;10.80;;;7.30;;
26656;SDS011;14279;50.010;8.260;2023-03-21T15:05:47;17.67;;;7.50;;
26656;SDS011;14279;50.010;8.260;2023-03-21T15:08:13;17.73;;;7.37;;
26656;SDS011;14279;50.010;8.260;2023-03-21T15:11:02;13.57;;;7.50;;
26656;SDS011;14279;50.010;8.260;2023-03-21T15:13:33;12.70;;;8.57;;
26656;SDS011;14279;50.010;8.260;2023-03-21T15:16:10;13.40;;;7.47;;
26656;SDS011;14279;50.010;8.260;2023-03-21T15:18:36;12.47;;;6.97;;
26656;SDS011;14279;50.010;8.260;2023-03-21T15:21:12;17.30;;;7.87;;
26656;SDS011;14279;50.010;8.260;2023-03-21T15:23:42;10.80;;;7.40;;
26656;SDS011;14279;50.010;8.260;2023-03-21T15:26:19;11.73;;;7.27;;
26656;SDS011;14279;50.010;8.260;2023-03-21T15:28:49;10.27;;;7.00;;
26656;SDS011;14279;50.010;8.260;2023-03-21T15:31:20;18.10;;;7.67;;
26656;SDS011;14279;50.010;8.260;2023-03-21T15:33:53;14.53;;;7.97;;
26656;SDS011;14279;50.010;8.260;2023-03-21T15:39:18;19.07;;;7.87;;
26656;SDS011;14279;50.010;8.260;2023-03-21T15:41:55;15.80;;;8.37;;
26656;SDS011;14279;50.010;8.260;2023-03-21T15:44:46;14.10;;;7.50;;
26656;SDS011;14279;50.010;8.260;2023-03-21T15:47:13;13.73;;;8.00;;
26656;SDS011;14279;50.010;8.260;2023-03-21T15:49:39;16.37;;;7.77;;
26656;SDS011;14279;50.010;8.260;2023-03-21T15:54:34;13.30;;;7.03;;
26656;SDS011;14279;50.010;8.260;2023-03-21T15:57:18;14.77;;;7.43;;
26656;SDS011;14279;50.010;8.260;2023-03-21T15:59:53;15.23;;;7.77;;
26656;SDS011;14279;50.010;8.260;2023-03-21T16:03:06;16.20;;;8.00;;
26656;SDS011;14279;50.010;8.260;2023-03-21T16:05:37;18.60;;;7.57;;
26656;SDS011;14279;50.010;8.260;2023-03-21T16:11:22;12.23;;;6.53;;
26656;SDS011;14279;50.010;8.260;2023-03-21T16:13:50;20.37;;;8.57;;
26656;SDS011;14279;50.010;8.260;2023-03-21T16:16:20;12.23;;;7.60;;
26656;SDS011;14279;50.010;8.260;2023-03-21T16:18:48;9.70;;;7.10;;
26656;SDS011;14279;50.010;8.260;2023-03-21T17:27:30;12.97;;;8.10;;
26656;SDS011;14279;50.010;8.260;2023-03-21T17:30:23;17.20;;;8.90;;
26656;SDS011;14279;50.010;8.260;2023-03-21T17:33:08;17.57;;;8.87;;
26656;SDS011;14279;50.010;8.260;2023-03-21T17:35:33;16.10;;;8.03;;
26656;SDS011;14279;50.010;8.260;2023-03-21T17:37:58;16.50;;;8.53;;
26656;SDS011;14279;50.010;8.260;2023-03-21T17:40:26;16.37;;;8.80;;
26656;SDS011;14279;50.010;8.260;2023-03-21T17:42:53;18.83;;;9.73;;
26656;SDS011;14279;50.010;8.260;2023-03-21T17:45:20;15.37;;;9.23;;
26656;SDS011;14279;50.010;8.260;2023-03-21T17:47:47;16.27;;;10.57;;
26656;SDS011;14279;50.010;8.260;2023-03-21T17:50:14;27.83;;;13.20;;